sensor_id;sensor_type;location;lat;lon;timestamp;P1;durP1;ratioP1;P2;durP2;ratioP2
60030;SDS011;45901;47.600;9.890;2022-08-20T00:00:23;24.80;;;20.90;;
60030;SDS011;45901;47.600;9.890;2022-08-20T00:02:55;22.53;;;19.93;;
60030;SDS011;45901;47.600;9.890;2022-08-20T00:05:27;26.40;;;21.70;;
60030;SDS011;45901;47.600;9.890;2022-08-20T00:07:58;26.07;;;21.00;;
60030;SDS011;45901;47.600;9.890;2022-08-20T00:10:26;25.10;;;19.93;;
60030;SDS011;45901;47.600;9.890;2022-08-20T00:12:55;24.53;;;19.60;;
60030;SDS011;45901;47.600;9.890;2022-08-20T00:15:23;24.77;;;21.20;;
60030;SDS011;45901;47.600;9.890;2022-08-20T00:17:55;25.27;;;19.83;;
60030;SDS011;45901;47.600;9.890;2022-08-20T00:20:26;25.57;;;20.33;;
60030;SDS011;45901;47.600;9.890;2022-08-20T00:22:58;22.13;;;19.43;;
60030;SDS011;45901;47.600;9.890;2022-08-20T00:25:26;25.27;;;20.00;;
60030;SDS011;45901;47.600;9.890;2022-08-20T00:27:54;23.93;;;19.67;;
60030;SDS011;45901;47.600;9.890;2022-08-20T00:30:22;25.73;;;20.47;;
60030;SDS011;45901;47.600;9.890;2022-08-20T00:32:53;26.00;;;20.33;;
60030;SDS011;45901;47.600;9.890;2022-08-20T00:35:26;25.37;;;20.10;;
60030;SDS011;45901;47.600;9.890;2022-08-20T00:37:57;23.53;;;20.33;;
60030;SDS011;45901;47.600;9.890;2022-08-20T00:40:26;26.93;;;21.57;;
60030;SDS011;45901;47.600;9.890;2022-08-20T00:42:56;24.67;;;21.03;;
60030;SDS011;45901;47.600;9.890;2022-08-20T00:45:27;25.07;;;19.97;;
60030;SDS011;45901;47.600;9.890;2022-08-20T00:47:57;26.87;;;20.70;;
60030;SDS011;45901;47.600;9.890;2022-08-20T00:50:26;23.93;;;20.07;;
60030;SDS011;45901;47.600;9.890;2022-08-20T00:52:59;25.17;;;20.43;;
60030;SDS011;45901;47.600;9.890;2022-08-20T00:55:28;28.67;;;21.13;;
60030;SDS011;45901;47.600;9.890;2022-08-20T00:57:59;29.67;;;21.77;;
60030;SDS011;45901;47.600;9.890;2022-08-20T01:00:35;27.43;;;21.33;;
60030;SDS011;45901;47.600;9.890;2022-08-20T01:03:07;26.33;;;21.30;;
60030;SDS011;45901;47.600;9.890;2022-08-20T01:05:36;25.50;;;20.83;;
60030;SDS011;45901;47.600;9.890;2022-08-20T01:08:05;30.40;;;20.43;;
60030;SDS011;45901;47.600;9.890;2022-08-20T01:10:34;28.17;;;21.13;;
60030;SDS011;45901;47.600;9.890;2022-08-20T01:13:06;24.50;;;20.03;;
60030;SDS011;45901;47.600;9.890;2022-08-20T01:15:37;26.07;;;19.77;;
60030;SDS011;45901;47.600;9.890;2022-08-20T01:18:10;26.50;;;20.87;;
60030;SDS011;45901;47.600;9.890;2022-08-20T01:20:42;23.43;;;20.27;;
60030;SDS011;45901;47.600;9.890;2022-08-20T01:23:15;24.57;;;20.30;;
60030;SDS011;45901;47.600;9.890;2022-08-20T01:25:57;26.13;;;21.30;;
60030;SDS011;45901;47.600;9.890;2022-08-20T01:28:34;24.77;;;20.23;;
60030;SDS011;45901;47.600;9.890;2022-08-20T01:31:06;24.20;;;19.97;;
60030;SDS011;45901;47.600;9.890;2022-08-20T01:33:37;24.03;;;21.00;;
60030;SDS011;45901;47.600;9.890;2022-08-20T01:36:05;24.87;;;19.70;;
60030;SDS011;45901;47.600;9.890;2022-08-20T01:38:34;24.17;;;19.03;;
60030;SDS011;45901;47.600;9.890;2022-08-20T01:41:14;24.43;;;19.17;;
60030;SDS011;45901;47.600;9.890;2022-08-20T01:44:21;21.73;;;18.70;;
60030;SDS011;45901;47.600;9.890;2022-08-20T01:46:49;25.53;;;19.50;;
60030;SDS011;45901;47.600;9.890;2022-08-20T01:49:20;25.33;;;19.03;;
60030;SDS011;45901;47.600;9.890;2022-08-20T01:51:52;23.17;;;19.00;;
60030;SDS011;45901;47.600;9.890;2022-08-20T01:54:22;23.97;;;19.07;;
60030;SDS011;45901;47.600;9.890;2022-08-20T01:56:54;22.53;;;18.73;;
60030;SDS011;45901;47.600;9.890;2022-08-20T01:59:27;26.20;;;18.77;;
60030;SDS011;45901;47.600;9.890;2022-08-20T02:01:55;23.17;;;19.20;;
60030;SDS011;45901;47.600;9.890;2022-08-20T02:04:23;23.27;;;19.27;;
60030;SDS011;45901;47.600;9.890;2022-08-20T02:06:53;23.53;;;19.70;;
60030;SDS011;45901;47.600;9.890;2022-08-20T02:09:23;23.20;;;17.87;;
60030;SDS011;45901;47.600;9.890;2022-08-20T02:11:53;21.60;;;18.80;;
60030;SDS011;45901;47.600;9.890;2022-08-20T02:14:22;23.50;;;18.20;;
60030;SDS011;45901;47.600;9.890;2022-08-20T02:16:50;22.27;;;19.10;;
60030;SDS011;45901;47.600;9.890;2022-08-20T02:19:20;22.47;;;18.10;;
60030;SDS011;45901;47.600;9.890;2022-08-20T02:21:56;22.60;;;18.40;;
60030;SDS011;45901;47.600;9.890;2022-08-20T02:24:27;23.73;;;18.07;;
60030;SDS011;45901;47.600;9.890;2022-08-20T02:26:56;23.87;;;18.57;;
60030;SDS011;45901;47.600;9.890;2022-08-20T02:29:23;22.47;;;18.03;;
60030;SDS011;45901;47.600;9.890;2022-08-20T02:31:50;21.20;;;17.30;;
60030;SDS011;45901;47.600;9.890;2022-08-20T02:34:19;20.70;;;16.63;;
60030;SDS011;45901;47.600;9.890;2022-08-20T02:36:46;21.07;;;17.40;;
60030;SDS011;45901;47.600;9.890;2022-08-20T02:39:13;21.70;;;16.30;;
60030;SDS011;45901;47.600;9.890;2022-08-20T02:41:41;19.87;;;16.93;;
60030;SDS011;45901;47.600;9.890;2022-08-20T02:44:09;23.17;;;17.63;;
60030;SDS011;45901;47.600;9.890;2022-08-20T02:46:37;20.30;;;16.33;;
60030;SDS011;45901;47.600;9.890;2022-08-20T02:49:04;20.30;;;17.20;;
60030;SDS011;45901;47.600;9.890;2022-08-20T02:51:31;22.60;;;17.20;;
60030;SDS011;45901;47.600;9.890;2022-08-20T02:53:58;20.73;;;17.10;;
60030;SDS011;45901;47.600;9.890;2022-08-20T02:56:26;24.23;;;17.07;;
60030;SDS011;45901;47.600;9.890;2022-08-20T02:58:53;21.63;;;16.07;;
60030;SDS011;45901;47.600;9.890;2022-08-20T03:01:21;20.27;;;17.00;;
60030;SDS011;45901;47.600;9.890;2022-08-20T03:03:49;20.83;;;17.43;;
60030;SDS011;45901;47.600;9.890;2022-08-20T03:06:16;21.13;;;16.97;;
60030;SDS011;45901;47.600;9.890;2022-08-20T03:08:46;17.70;;;15.73;;
60030;SDS011;45901;47.600;9.890;2022-08-20T03:11:13;20.17;;;17.30;;
60030;SDS011;45901;47.600;9.890;2022-08-20T03:13:40;22.87;;;18.60;;
60030;SDS011;45901;47.600;9.890;2022-08-20T03:16:08;19.73;;;17.27;;
60030;SDS011;45901;47.600;9.890;2022-08-20T03:18:38;19.87;;;17.13;;
60030;SDS011;45901;47.600;9.890;2022-08-20T03:21:12;21.70;;;17.67;;
60030;SDS011;45901;47.600;9.890;2022-08-20T03:23:39;22.03;;;17.33;;
60030;SDS011;45901;47.600;9.890;2022-08-20T03:26:08;19.47;;;16.93;;
60030;SDS011;45901;47.600;9.890;2022-08-20T03:28:37;19.60;;;16.87;;
60030;SDS011;45901;47.600;9.890;2022-08-20T03:31:05;20.87;;;16.30;;
60030;SDS011;45901;47.600;9.890;2022-08-20T03:33:33;18.50;;;16.40;;
60030;SDS011;45901;47.600;9.890;2022-08-20T03:36:02;19.83;;;16.50;;
60030;SDS011;45901;47.600;9.890;2022-08-20T03:38:30;19.13;;;16.87;;
60030;SDS011;45901;47.600;9.890;2022-08-20T03:40:57;20.67;;;16.63;;
60030;SDS011;45901;47.600;9.890;2022-08-20T03:43:24;20.43;;;17.10;;
60030;SDS011;45901;47.600;9.890;2022-08-20T03:45:52;18.43;;;16.37;;
60030;SDS011;45901;47.600;9.890;2022-08-20T03:48:19;20.67;;;17.37;;
60030;SDS011;45901;47.600;9.890;2022-08-20T03:50:47;25.30;;;17.43;;
60030;SDS011;45901;47.600;9.890;2022-08-20T03:53:17;25.33;;;19.53;;
60030;SDS011;45901;47.600;9.890;2022-08-20T03:55:46;23.23;;;18.37;;
60030;SDS011;45901;47.600;9.890;2022-08-20T03:58:18;21.83;;;18.23;;
60030;SDS011;45901;47.600;9.890;2022-08-20T04:00:46;21.53;;;18.03;;
60030;SDS011;45901;47.600;9.890;2022-08-20T04:03:15;22.33;;;18.43;;
60030;SDS011;45901;47.600;9.890;2022-08-20T04:05:43;21.43;;;17.57;;
60030;SDS011;45901;47.600;9.890;2022-08-20T04:08:12;26.03;;;17.57;;
60030;SDS011;45901;47.600;9.890;2022-08-20T04:10:44;21.77;;;17.10;;
60030;SDS011;45901;47.600;9.890;2022-08-20T04:13:13;22.50;;;18.53;;
60030;SDS011;45901;47.600;9.890;2022-08-20T04:15:43;21.57;;;17.97;;
60030;SDS011;45901;47.600;9.890;2022-08-20T04:18:12;23.03;;;18.17;;
60030;SDS011;45901;47.600;9.890;2022-08-20T04:20:45;22.70;;;18.27;;
60030;SDS011;45901;47.600;9.890;2022-08-20T04:23:12;24.13;;;18.13;;
60030;SDS011;45901;47.600;9.890;2022-08-20T04:25:40;21.53;;;17.73;;
60030;SDS011;45901;47.600;9.890;2022-08-20T04:28:11;20.33;;;17.57;;
60030;SDS011;45901;47.600;9.890;2022-08-20T04:30:41;20.07;;;16.20;;
60030;SDS011;45901;47.600;9.890;2022-08-20T04:33:08;19.40;;;16.90;;
60030;SDS011;45901;47.600;9.890;2022-08-20T04:35:36;20.97;;;17.17;;
60030;SDS011;45901;47.600;9.890;2022-08-20T04:38:04;23.93;;;17.73;;
60030;SDS011;45901;47.600;9.890;2022-08-20T04:40:34;24.80;;;18.53;;
60030;SDS011;45901;47.600;9.890;2022-08-20T04:43:24;20.97;;;17.00;;
60030;SDS011;45901;47.600;9.890;2022-08-20T04:45:54;22.57;;;18.37;;
60030;SDS011;45901;47.600;9.890;2022-08-20T04:48:23;24.00;;;19.00;;
60030;SDS011;45901;47.600;9.890;2022-08-20T04:50:52;26.17;;;18.03;;
60030;SDS011;45901;47.600;9.890;2022-08-20T04:53:23;20.77;;;17.23;;
60030;SDS011;45901;47.600;9.890;2022-08-20T04:55:54;21.73;;;17.47;;
60030;SDS011;45901;47.600;9.890;2022-08-20T04:58:27;23.07;;;17.17;;
60030;SDS011;45901;47.600;9.890;2022-08-20T05:00:58;22.00;;;16.93;;
60030;SDS011;45901;47.600;9.890;2022-08-20T05:03:28;23.40;;;18.13;;
60030;SDS011;45901;47.600;9.890;2022-08-20T05:05:56;21.67;;;17.87;;
60030;SDS011;45901;47.600;9.890;2022-08-20T05:08:23;23.63;;;17.60;;
60030;SDS011;45901;47.600;9.890;2022-08-20T05:10:52;21.20;;;17.80;;
60030;SDS011;45901;47.600;9.890;2022-08-20T05:13:20;20.47;;;17.23;;
60030;SDS011;45901;47.600;9.890;2022-08-20T05:15:49;23.40;;;17.80;;
60030;SDS011;45901;47.600;9.890;2022-08-20T05:18:16;20.57;;;17.60;;
60030;SDS011;45901;47.600;9.890;2022-08-20T05:20:45;20.80;;;16.33;;
60030;SDS011;45901;47.600;9.890;2022-08-20T05:23:14;19.03;;;15.60;;
60030;SDS011;45901;47.600;9.890;2022-08-20T05:25:45;22.50;;;15.93;;
60030;SDS011;45901;47.600;9.890;2022-08-20T05:28:16;20.87;;;16.57;;
60030;SDS011;45901;47.600;9.890;2022-08-20T05:30:45;19.93;;;15.60;;
60030;SDS011;45901;47.600;9.890;2022-08-20T05:33:16;19.80;;;15.00;;
60030;SDS011;45901;47.600;9.890;2022-08-20T05:35:45;18.10;;;15.50;;
60030;SDS011;45901;47.600;9.890;2022-08-20T05:38:16;19.40;;;15.47;;
60030;SDS011;45901;47.600;9.890;2022-08-20T05:40:46;18.67;;;15.17;;
60030;SDS011;45901;47.600;9.890;2022-08-20T05:43:13;19.07;;;15.67;;
60030;SDS011;45901;47.600;9.890;2022-08-20T05:45:41;19.10;;;14.57;;
60030;SDS011;45901;47.600;9.890;2022-08-20T05:48:11;16.40;;;13.30;;
60030;SDS011;45901;47.600;9.890;2022-08-20T05:50:44;17.77;;;13.33;;
60030;SDS011;45901;47.600;9.890;2022-08-20T05:53:14;18.57;;;14.13;;
60030;SDS011;45901;47.600;9.890;2022-08-20T05:55:43;16.80;;;14.33;;
60030;SDS011;45901;47.600;9.890;2022-08-20T05:58:17;16.67;;;12.67;;
60030;SDS011;45901;47.600;9.890;2022-08-20T06:00:47;14.53;;;12.27;;
60030;SDS011;45901;47.600;9.890;2022-08-20T06:03:17;14.63;;;12.63;;
60030;SDS011;45901;47.600;9.890;2022-08-20T06:06:03;13.00;;;11.60;;
60030;SDS011;45901;47.600;9.890;2022-08-20T06:08:31;12.27;;;10.30;;
60030;SDS011;45901;47.600;9.890;2022-08-20T06:10:58;13.17;;;10.50;;
60030;SDS011;45901;47.600;9.890;2022-08-20T06:13:25;14.70;;;11.53;;
60030;SDS011;45901;47.600;9.890;2022-08-20T06:15:53;13.63;;;10.77;;
60030;SDS011;45901;47.600;9.890;2022-08-20T06:18:22;14.13;;;10.87;;
60030;SDS011;45901;47.600;9.890;2022-08-20T06:20:50;14.07;;;10.47;;
60030;SDS011;45901;47.600;9.890;2022-08-20T06:23:17;11.57;;;10.07;;
60030;SDS011;45901;47.600;9.890;2022-08-20T06:25:45;11.73;;;9.80;;
60030;SDS011;45901;47.600;9.890;2022-08-20T06:28:14;10.83;;;9.13;;
60030;SDS011;45901;47.600;9.890;2022-08-20T06:30:42;12.50;;;8.97;;
60030;SDS011;45901;47.600;9.890;2022-08-20T06:33:10;11.73;;;9.47;;
60030;SDS011;45901;47.600;9.890;2022-08-20T06:35:38;15.13;;;10.33;;
60030;SDS011;45901;47.600;9.890;2022-08-20T06:38:08;11.63;;;9.30;;
60030;SDS011;45901;47.600;9.890;2022-08-20T06:40:36;10.87;;;9.20;;
60030;SDS011;45901;47.600;9.890;2022-08-20T06:43:03;15.77;;;9.70;;
60030;SDS011;45901;47.600;9.890;2022-08-20T06:45:33;10.70;;;9.37;;
60030;SDS011;45901;47.600;9.890;2022-08-20T06:48:08;11.77;;;9.10;;
60030;SDS011;45901;47.600;9.890;2022-08-20T06:50:40;10.63;;;7.70;;
60030;SDS011;45901;47.600;9.890;2022-08-20T06:53:11;13.80;;;10.00;;
60030;SDS011;45901;47.600;9.890;2022-08-20T06:55:41;12.90;;;10.00;;
60030;SDS011;45901;47.600;9.890;2022-08-20T06:58:14;10.80;;;9.50;;
60030;SDS011;45901;47.600;9.890;2022-08-20T07:00:43;10.83;;;8.80;;
60030;SDS011;45901;47.600;9.890;2022-08-20T07:03:12;11.97;;;9.57;;
60030;SDS011;45901;47.600;9.890;2022-08-20T07:05:41;9.03;;;7.73;;
60030;SDS011;45901;47.600;9.890;2022-08-20T07:08:10;9.33;;;8.10;;
60030;SDS011;45901;47.600;9.890;2022-08-20T07:10:40;10.10;;;8.80;;
60030;SDS011;45901;47.600;9.890;2022-08-20T07:13:08;11.50;;;9.50;;
60030;SDS011;45901;47.600;9.890;2022-08-20T07:15:36;9.67;;;8.57;;
60030;SDS011;45901;47.600;9.890;2022-08-20T07:18:04;10.80;;;8.43;;
60030;SDS011;45901;47.600;9.890;2022-08-20T07:20:34;9.77;;;6.40;;
60030;SDS011;45901;47.600;9.890;2022-08-20T07:23:06;10.03;;;8.53;;
60030;SDS011;45901;47.600;9.890;2022-08-20T07:25:43;13.23;;;9.33;;
60030;SDS011;45901;47.600;9.890;2022-08-20T07:28:11;11.43;;;10.03;;
60030;SDS011;45901;47.600;9.890;2022-08-20T07:30:44;11.70;;;8.73;;
60030;SDS011;45901;47.600;9.890;2022-08-20T07:33:30;9.57;;;8.23;;
60030;SDS011;45901;47.600;9.890;2022-08-20T07:35:58;9.63;;;7.93;;
60030;SDS011;45901;47.600;9.890;2022-08-20T07:38:30;10.27;;;9.03;;
60030;SDS011;45901;47.600;9.890;2022-08-20T07:40:59;9.57;;;8.37;;
60030;SDS011;45901;47.600;9.890;2022-08-20T07:43:28;11.67;;;9.37;;
60030;SDS011;45901;47.600;9.890;2022-08-20T07:45:57;10.47;;;9.37;;
60030;SDS011;45901;47.600;9.890;2022-08-20T07:48:27;12.40;;;9.93;;
60030;SDS011;45901;47.600;9.890;2022-08-20T07:50:55;14.17;;;10.77;;
60030;SDS011;45901;47.600;9.890;2022-08-20T07:53:27;17.00;;;11.40;;
60030;SDS011;45901;47.600;9.890;2022-08-20T07:56:03;12.67;;;10.87;;
60030;SDS011;45901;47.600;9.890;2022-08-20T07:58:54;14.40;;;11.87;;
60030;SDS011;45901;47.600;9.890;2022-08-20T08:01:44;18.03;;;11.23;;
60030;SDS011;45901;47.600;9.890;2022-08-20T08:04:12;17.97;;;11.87;;
60030;SDS011;45901;47.600;9.890;2022-08-20T08:06:50;14.57;;;11.80;;
60030;SDS011;45901;47.600;9.890;2022-08-20T08:09:35;14.10;;;11.20;;
60030;SDS011;45901;47.600;9.890;2022-08-20T08:12:13;12.87;;;10.97;;
60030;SDS011;45901;47.600;9.890;2022-08-20T08:15:04;13.83;;;10.87;;
60030;SDS011;45901;47.600;9.890;2022-08-20T08:17:43;13.30;;;10.70;;
60030;SDS011;45901;47.600;9.890;2022-08-20T08:20:19;13.60;;;10.57;;
60030;SDS011;45901;47.600;9.890;2022-08-20T08:22:50;12.10;;;9.07;;
60030;SDS011;45901;47.600;9.890;2022-08-20T08:25:40;10.80;;;9.03;;
60030;SDS011;45901;47.600;9.890;2022-08-20T08:28:12;11.17;;;9.37;;
60030;SDS011;45901;47.600;9.890;2022-08-20T08:30:44;12.03;;;9.30;;
60030;SDS011;45901;47.600;9.890;2022-08-20T08:33:19;9.63;;;7.37;;
60030;SDS011;45901;47.600;9.890;2022-08-20T08:35:53;8.73;;;7.00;;
60030;SDS011;45901;47.600;9.890;2022-08-20T08:38:32;9.77;;;7.13;;
60030;SDS011;45901;47.600;9.890;2022-08-20T08:41:13;10.43;;;6.63;;
60030;SDS011;45901;47.600;9.890;2022-08-20T08:43:44;9.80;;;7.10;;
60030;SDS011;45901;47.600;9.890;2022-08-20T08:46:14;7.13;;;6.10;;
60030;SDS011;45901;47.600;9.890;2022-08-20T08:48:47;10.80;;;7.87;;
60030;SDS011;45901;47.600;9.890;2022-08-20T08:51:19;8.73;;;6.30;;
60030;SDS011;45901;47.600;9.890;2022-08-20T08:53:53;9.07;;;6.93;;
60030;SDS011;45901;47.600;9.890;2022-08-20T08:56:25;9.67;;;7.40;;
60030;SDS011;45901;47.600;9.890;2022-08-20T08:58:55;8.27;;;6.97;;
60030;SDS011;45901;47.600;9.890;2022-08-20T09:01:26;8.97;;;7.20;;
60030;SDS011;45901;47.600;9.890;2022-08-20T09:03:57;11.10;;;7.00;;
60030;SDS011;45901;47.600;9.890;2022-08-20T09:06:24;9.17;;;6.57;;
60030;SDS011;45901;47.600;9.890;2022-08-20T09:08:52;8.10;;;5.63;;
60030;SDS011;45901;47.600;9.890;2022-08-20T09:11:26;8.70;;;5.43;;
60030;SDS011;45901;47.600;9.890;2022-08-20T09:13:55;8.53;;;5.70;;
60030;SDS011;45901;47.600;9.890;2022-08-20T09:16:26;6.43;;;5.50;;
60030;SDS011;45901;47.600;9.890;2022-08-20T09:18:55;8.73;;;6.27;;
60030;SDS011;45901;47.600;9.890;2022-08-20T09:21:22;8.50;;;6.70;;
60030;SDS011;45901;47.600;9.890;2022-08-20T09:23:49;6.93;;;5.57;;
60030;SDS011;45901;47.600;9.890;2022-08-20T09:26:16;5.80;;;5.03;;
60030;SDS011;45901;47.600;9.890;2022-08-20T09:28:45;6.23;;;4.90;;
60030;SDS011;45901;47.600;9.890;2022-08-20T09:31:12;5.33;;;4.30;;
60030;SDS011;45901;47.600;9.890;2022-08-20T09:33:40;5.60;;;4.27;;
60030;SDS011;45901;47.600;9.890;2022-08-20T09:36:07;4.47;;;3.37;;
60030;SDS011;45901;47.600;9.890;2022-08-20T09:38:35;3.63;;;3.23;;
60030;SDS011;45901;47.600;9.890;2022-08-20T09:41:02;8.20;;;4.87;;
60030;SDS011;45901;47.600;9.890;2022-08-20T09:43:29;4.67;;;3.87;;
60030;SDS011;45901;47.600;9.890;2022-08-20T09:46:00;6.17;;;4.00;;
60030;SDS011;45901;47.600;9.890;2022-08-20T09:48:27;5.03;;;3.63;;
60030;SDS011;45901;47.600;9.890;2022-08-20T09:50:55;6.07;;;3.90;;
60030;SDS011;45901;47.600;9.890;2022-08-20T09:53:22;5.13;;;4.00;;
60030;SDS011;45901;47.600;9.890;2022-08-20T09:55:50;5.33;;;3.60;;
60030;SDS011;45901;47.600;9.890;2022-08-20T09:58:20;5.90;;;4.27;;
60030;SDS011;45901;47.600;9.890;2022-08-20T10:06:45;5.17;;;4.27;;
60030;SDS011;45901;47.600;9.890;2022-08-20T10:13:14;7.00;;;4.90;;
60030;SDS011;45901;47.600;9.890;2022-08-20T15:32:10;1.60;;;0.90;;
60030;SDS011;45901;47.600;9.890;2022-08-20T15:47:00;1.00;;;0.80;;
60030;SDS011;45901;47.600;9.890;2022-08-20T15:58:53;0.60;;;0.60;;
60030;SDS011;45901;47.600;9.890;2022-08-20T16:02:42;0.80;;;0.60;;
60030;SDS011;45901;47.600;9.890;2022-08-20T16:05:51;0.90;;;0.60;;
60030;SDS011;45901;47.600;9.890;2022-08-20T16:08:34;1.20;;;0.80;;
60030;SDS011;45901;47.600;9.890;2022-08-20T16:11:19;1.23;;;0.80;;
60030;SDS011;45901;47.600;9.890;2022-08-20T16:13:56;1.17;;;0.60;;
60030;SDS011;45901;47.600;9.890;2022-08-20T16:16:36;0.70;;;0.70;;
60030;SDS011;45901;47.600;9.890;2022-08-20T16:19:09;1.80;;;0.90;;
60030;SDS011;45901;47.600;9.890;2022-08-20T16:21:39;1.50;;;0.83;;
60030;SDS011;45901;47.600;9.890;2022-08-20T16:24:09;2.80;;;1.17;;
60030;SDS011;45901;47.600;9.890;2022-08-20T16:26:47;1.07;;;0.83;;
60030;SDS011;45901;47.600;9.890;2022-08-20T16:29:38;1.37;;;0.87;;
60030;SDS011;45901;47.600;9.890;2022-08-20T16:32:17;1.37;;;0.70;;
60030;SDS011;45901;47.600;9.890;2022-08-20T16:34:57;2.37;;;1.00;;
60030;SDS011;45901;47.600;9.890;2022-08-20T16:37:33;6.00;;;3.57;;
60030;SDS011;45901;47.600;9.890;2022-08-20T16:40:11;10.47;;;3.97;;
60030;SDS011;45901;47.600;9.890;2022-08-20T16:42:48;4.60;;;2.07;;
60030;SDS011;45901;47.600;9.890;2022-08-20T16:45:20;3.60;;;2.40;;
60030;SDS011;45901;47.600;9.890;2022-08-20T16:47:57;5.03;;;2.20;;
60030;SDS011;45901;47.600;9.890;2022-08-20T16:50:28;2.07;;;1.50;;
60030;SDS011;45901;47.600;9.890;2022-08-20T16:53:00;2.70;;;1.50;;
60030;SDS011;45901;47.600;9.890;2022-08-20T16:55:28;1.07;;;0.90;;
60030;SDS011;45901;47.600;9.890;2022-08-20T16:57:55;1.53;;;1.03;;
60030;SDS011;45901;47.600;9.890;2022-08-20T17:00:25;3.43;;;1.13;;
60030;SDS011;45901;47.600;9.890;2022-08-20T17:03:00;4.30;;;2.20;;
60030;SDS011;45901;47.600;9.890;2022-08-20T17:05:45;4.40;;;2.00;;
60030;SDS011;45901;47.600;9.890;2022-08-20T17:08:21;4.10;;;1.90;;
60030;SDS011;45901;47.600;9.890;2022-08-20T17:10:55;3.17;;;1.67;;
60030;SDS011;45901;47.600;9.890;2022-08-20T17:13:30;1.73;;;1.23;;
60030;SDS011;45901;47.600;9.890;2022-08-20T17:16:03;1.03;;;0.80;;
60030;SDS011;45901;47.600;9.890;2022-08-20T17:18:45;1.83;;;1.20;;
60030;SDS011;45901;47.600;9.890;2022-08-20T17:21:17;1.90;;;1.37;;
60030;SDS011;45901;47.600;9.890;2022-08-20T17:23:51;4.00;;;1.30;;
60030;SDS011;45901;47.600;9.890;2022-08-20T17:26:22;2.37;;;1.03;;
60030;SDS011;45901;47.600;9.890;2022-08-20T17:28:57;3.97;;;1.00;;
60030;SDS011;45901;47.600;9.890;2022-08-20T17:31:32;1.43;;;1.27;;
60030;SDS011;45901;47.600;9.890;2022-08-20T17:34:01;3.73;;;1.20;;
60030;SDS011;45901;47.600;9.890;2022-08-20T17:36:30;1.53;;;1.30;;
60030;SDS011;45901;47.600;9.890;2022-08-20T17:38:59;1.77;;;1.43;;
60030;SDS011;45901;47.600;9.890;2022-08-20T17:41:28;2.63;;;1.20;;
60030;SDS011;45901;47.600;9.890;2022-08-20T17:44:01;2.00;;;1.30;;
60030;SDS011;45901;47.600;9.890;2022-08-20T17:46:33;1.30;;;1.20;;
60030;SDS011;45901;47.600;9.890;2022-08-20T17:49:07;1.30;;;1.10;;
60030;SDS011;45901;47.600;9.890;2022-08-20T17:51:41;3.17;;;1.20;;
60030;SDS011;45901;47.600;9.890;2022-08-20T17:54:13;12.17;;;1.43;;
60030;SDS011;45901;47.600;9.890;2022-08-20T17:56:46;1.37;;;1.27;;
60030;SDS011;45901;47.600;9.890;2022-08-20T17:59:22;2.20;;;1.70;;
60030;SDS011;45901;47.600;9.890;2022-08-20T18:01:57;1.97;;;1.30;;
60030;SDS011;45901;47.600;9.890;2022-08-20T18:04:26;1.47;;;1.30;;
60030;SDS011;45901;47.600;9.890;2022-08-20T18:06:59;2.80;;;1.30;;
60030;SDS011;45901;47.600;9.890;2022-08-20T18:09:35;1.60;;;1.50;;
60030;SDS011;45901;47.600;9.890;2022-08-20T18:12:09;3.10;;;1.50;;
60030;SDS011;45901;47.600;9.890;2022-08-20T18:14:46;2.33;;;1.90;;
60030;SDS011;45901;47.600;9.890;2022-08-20T18:20:42;2.93;;;1.60;;
60030;SDS011;45901;47.600;9.890;2022-08-20T18:23:49;1.53;;;1.37;;
60030;SDS011;45901;47.600;9.890;2022-08-20T18:26:31;2.23;;;1.60;;
60030;SDS011;45901;47.600;9.890;2022-08-20T18:29:13;2.37;;;1.60;;
60030;SDS011;45901;47.600;9.890;2022-08-20T18:31:44;1.50;;;1.30;;
60030;SDS011;45901;47.600;9.890;2022-08-20T18:34:18;2.17;;;1.40;;
60030;SDS011;45901;47.600;9.890;2022-08-20T18:37:01;2.10;;;1.27;;
60030;SDS011;45901;47.600;9.890;2022-08-20T18:39:47;3.87;;;1.50;;
60030;SDS011;45901;47.600;9.890;2022-08-20T18:42:22;2.23;;;1.40;;
60030;SDS011;45901;47.600;9.890;2022-08-20T18:44:54;3.50;;;1.20;;
60030;SDS011;45901;47.600;9.890;2022-08-20T18:47:22;2.10;;;1.50;;
60030;SDS011;45901;47.600;9.890;2022-08-20T18:50:00;1.37;;;1.20;;
60030;SDS011;45901;47.600;9.890;2022-08-20T18:52:42;1.53;;;1.10;;
60030;SDS011;45901;47.600;9.890;2022-08-20T18:55:13;2.27;;;1.20;;
60030;SDS011;45901;47.600;9.890;2022-08-20T18:57:57;2.20;;;1.40;;
60030;SDS011;45901;47.600;9.890;2022-08-20T19:00:29;1.33;;;0.87;;
60030;SDS011;45901;47.600;9.890;2022-08-20T19:03:13;2.63;;;1.00;;
60030;SDS011;45901;47.600;9.890;2022-08-20T19:06:00;1.97;;;1.00;;
60030;SDS011;45901;47.600;9.890;2022-08-20T19:08:41;1.63;;;1.10;;
60030;SDS011;45901;47.600;9.890;2022-08-20T19:14:43;0.70;;;0.60;;
60030;SDS011;45901;47.600;9.890;2022-08-20T19:20:30;0.87;;;0.70;;
60030;SDS011;45901;47.600;9.890;2022-08-20T19:23:05;2.23;;;0.80;;
60030;SDS011;45901;47.600;9.890;2022-08-20T19:25:39;3.97;;;1.00;;
60030;SDS011;45901;47.600;9.890;2022-08-20T19:28:25;5.27;;;2.80;;
60030;SDS011;45901;47.600;9.890;2022-08-20T19:31:06;5.87;;;3.33;;
60030;SDS011;45901;47.600;9.890;2022-08-20T19:33:36;2.50;;;1.50;;
60030;SDS011;45901;47.600;9.890;2022-08-20T19:36:07;1.83;;;0.70;;
60030;SDS011;45901;47.600;9.890;2022-08-20T19:38:44;2.63;;;0.70;;
60030;SDS011;45901;47.600;9.890;2022-08-20T19:44:52;1.37;;;0.60;;
60030;SDS011;45901;47.600;9.890;2022-08-20T19:47:40;1.43;;;0.80;;
60030;SDS011;45901;47.600;9.890;2022-08-20T19:50:27;0.63;;;0.63;;
60030;SDS011;45901;47.600;9.890;2022-08-20T19:53:17;1.07;;;0.80;;
60030;SDS011;45901;47.600;9.890;2022-08-20T19:55:56;1.53;;;0.70;;
60030;SDS011;45901;47.600;9.890;2022-08-20T19:58:27;0.80;;;0.57;;
60030;SDS011;45901;47.600;9.890;2022-08-20T20:01:02;2.30;;;0.97;;
60030;SDS011;45901;47.600;9.890;2022-08-20T20:03:55;0.77;;;0.50;;
60030;SDS011;45901;47.600;9.890;2022-08-20T20:06:26;1.37;;;0.70;;
60030;SDS011;45901;47.600;9.890;2022-08-20T20:08:58;0.63;;;0.60;;
60030;SDS011;45901;47.600;9.890;2022-08-20T20:11:31;2.47;;;0.50;;
60030;SDS011;45901;47.600;9.890;2022-08-20T20:14:06;4.37;;;0.97;;
60030;SDS011;45901;47.600;9.890;2022-08-20T20:16:37;1.30;;;0.80;;
60030;SDS011;45901;47.600;9.890;2022-08-20T20:19:06;0.80;;;0.63;;
60030;SDS011;45901;47.600;9.890;2022-08-20T20:21:37;0.70;;;0.70;;
60030;SDS011;45901;47.600;9.890;2022-08-20T20:24:07;1.33;;;0.77;;
60030;SDS011;45901;47.600;9.890;2022-08-20T20:26:37;1.30;;;0.70;;
60030;SDS011;45901;47.600;9.890;2022-08-20T20:29:07;0.97;;;0.80;;
60030;SDS011;45901;47.600;9.890;2022-08-20T20:31:41;1.33;;;0.40;;
60030;SDS011;45901;47.600;9.890;2022-08-20T20:34:14;1.27;;;0.60;;
60030;SDS011;45901;47.600;9.890;2022-08-20T20:36:48;4.57;;;0.70;;
60030;SDS011;45901;47.600;9.890;2022-08-20T20:39:30;1.13;;;0.73;;
60030;SDS011;45901;47.600;9.890;2022-08-20T20:42:03;1.43;;;0.90;;
60030;SDS011;45901;47.600;9.890;2022-08-20T20:44:34;2.60;;;0.90;;
60030;SDS011;45901;47.600;9.890;2022-08-20T20:47:04;2.17;;;0.73;;
60030;SDS011;45901;47.600;9.890;2022-08-20T20:49:34;2.10;;;0.80;;
60030;SDS011;45901;47.600;9.890;2022-08-20T20:52:16;2.60;;;0.87;;
60030;SDS011;45901;47.600;9.890;2022-08-20T20:54:48;3.57;;;0.90;;
60030;SDS011;45901;47.600;9.890;2022-08-20T20:57:23;1.03;;;0.80;;
60030;SDS011;45901;47.600;9.890;2022-08-20T20:59:51;0.80;;;0.50;;
60030;SDS011;45901;47.600;9.890;2022-08-20T21:02:19;1.00;;;0.70;;
60030;SDS011;45901;47.600;9.890;2022-08-20T21:04:48;0.83;;;0.60;;